Time;durP1;ratioP1;P1;durP2;ratioP2;P2;SDS_P1;SDS_P2;PMS_P1;PMS_P2;Temp;Humidity;BMP_temperature;BMP_pressure;BME280_temperature;BME280_humidity;BME280_pressure;Samples;Min_cycle;Max_cycle;Signal;HPM_P1;HPM_P2
2023/09/04 00:01:51;;;;;;;15.30;10.10;;;16.90;99.90;;;;;;5082869;28;20433;-75
2023/09/04 00:04:16;;;;;;;13.63;9.45;;;16.90;99.90;;;;;;5082104;28;20387;-75
2023/09/04 00:06:42;;;;;;;12.75;9.90;;;16.90;99.90;;;;;;5091803;28;20020;-75
2023/09/04 00:09:07;;;;;;;12.70;9.23;;;16.80;99.90;;;;;;5083783;28;20048;-75
2023/09/04 00:11:33;;;;;;;12.63;9.48;;;16.80;99.90;;;;;;5078886;28;20178;-75
2023/09/04 00:13:59;;;;;;;12.98;9.30;;;16.80;99.90;;;;;;5073344;28;20099;-75
2023/09/04 00:16:24;;;;;;;15.85;9.82;;;16.80;99.90;;;;;;5090608;28;20028;-75
2023/09/04 00:18:50;;;;;;;12.73;9.85;;;16.70;99.90;;;;;;5075439;28;20444;-74
2023/09/04 00:21:16;;;;;;;12.75;10.00;;;16.70;99.90;;;;;;5084690;28;20024;-75
2023/09/04 00:23:41;;;;;;;13.18;9.75;;;16.70;99.90;;;;;;5078657;28;20438;-74
2023/09/04 00:26:07;;;;;;;13.82;9.32;;;16.60;99.90;;;;;;5081922;28;20036;-75
2023/09/04 00:28:32;;;;;;;12.20;9.30;;;16.60;99.90;;;;;;5083910;28;20027;-75
2023/09/04 00:30:58;;;;;;;11.70;9.20;;;16.60;99.90;;;;;;5076343;28;20343;-75
2023/09/04 00:33:24;;;;;;;12.05;9.27;;;16.60;99.90;;;;;;5090420;28;20024;-75
2023/09/04 00:35:49;;;;;;;12.75;8.95;;;16.50;99.90;;;;;;5077453;28;20098;-75
2023/09/04 00:38:15;;;;;;;12.40;9.32;;;16.50;99.90;;;;;;5084696;28;20036;-75
2023/09/04 00:40:41;;;;;;;13.15;9.52;;;16.50;99.90;;;;;;5090882;28;20024;-74
2023/09/04 00:43:07;;;;;;;14.38;9.90;;;16.50;99.90;;;;;;5083019;28;20064;-75
2023/09/04 00:45:34;;;;;;;13.25;9.55;;;16.50;99.90;;;;;;5086238;28;20146;-75
2023/09/04 00:48:01;;;;;;;18.42;10.30;;;16.40;99.90;;;;;;5084131;28;20016;-74
2023/09/04 00:50:27;;;;;;;13.55;10.60;;;16.40;99.90;;;;;;5089847;28;20093;-74
2023/09/04 00:52:59;;;;;;;14.25;10.88;;;16.40;99.90;;;;;;5087203;28;20017;-75
2023/09/04 00:55:26;;;;;;;16.15;10.88;;;16.40;99.90;;;;;;5088119;28;20481;-75
2023/09/04 00:57:52;;;;;;;16.23;11.95;;;16.40;99.90;;;;;;5087444;28;20034;-74
2023/09/04 01:00:22;;;;;;;16.60;12.38;;;16.40;99.90;;;;;;5083252;28;20024;-74
2023/09/04 01:02:48;;;;;;;15.30;11.63;;;16.40;99.90;;;;;;5091852;28;20020;-74
2023/09/04 01:05:13;;;;;;;17.02;11.18;;;16.40;99.90;;;;;;5086818;28;20028;-75
2023/09/04 01:07:41;;;;;;;17.52;11.25;;;16.30;99.90;;;;;;5088304;28;20024;-75
2023/09/04 01:10:08;;;;;;;14.27;10.98;;;16.30;99.90;;;;;;5080333;28;20012;-75
2023/09/04 01:12:53;;;;;;;18.45;10.45;;;16.30;99.90;;;;;;5087199;28;20383;-74
2023/09/04 01:15:19;;;;;;;16.98;11.10;;;16.30;99.90;;;;;;5079594;28;20078;-75
2023/09/04 01:17:47;;;;;;;13.65;10.90;;;16.30;99.90;;;;;;5076907;28;20025;-75
2023/09/04 01:20:23;;;;;;;16.92;11.30;;;16.30;99.90;;;;;;5087291;28;20030;-75
2023/09/04 01:22:49;;;;;;;14.35;10.93;;;16.30;99.90;;;;;;5091052;28;20034;-75
2023/09/04 01:25:15;;;;;;;15.27;11.30;;;16.30;99.90;;;;;;5082008;28;20042;-75
2023/09/04 01:27:49;;;;;;;15.05;10.93;;;16.30;99.90;;;;;;5077762;28;20021;-75
2023/09/04 01:30:28;;;;;;;15.15;10.93;;;16.30;99.90;;;;;;5090029;28;20509;-74
2023/09/04 01:33:02;;;;;;;15.13;11.15;;;16.30;99.90;;;;;;5082019;28;20020;-75
2023/09/04 01:35:30;;;;;;;15.60;10.95;;;16.30;99.90;;;;;;5078269;28;20107;-75
2023/09/04 01:37:56;;;;;;;14.63;10.27;;;16.20;99.90;;;;;;5082422;28;20028;-75
2023/09/04 01:40:23;;;;;;;14.52;10.65;;;16.20;99.90;;;;;;5089768;28;20027;-75
2023/09/04 01:42:49;;;;;;;13.07;9.38;;;16.20;99.90;;;;;;5086528;28;20036;-75
2023/09/04 01:45:14;;;;;;;15.18;10.88;;;16.20;99.90;;;;;;5083963;28;20537;-75
2023/09/04 01:47:40;;;;;;;14.93;10.82;;;16.20;99.90;;;;;;5085279;28;20112;-75
2023/09/04 01:50:06;;;;;;;15.00;10.70;;;16.20;99.90;;;;;;5083802;28;20048;-75
2023/09/04 01:52:32;;;;;;;15.48;10.52;;;16.20;99.90;;;;;;5080014;28;20415;-75
2023/09/04 01:54:57;;;;;;;14.55;10.60;;;16.20;99.90;;;;;;5084042;28;20052;-75
2023/09/04 01:57:23;;;;;;;13.55;10.73;;;16.10;99.90;;;;;;5089088;28;20028;-75
2023/09/04 01:59:48;;;;;;;14.90;11.05;;;16.10;99.90;;;;;;5089274;28;20440;-75
2023/09/04 02:02:14;;;;;;;13.80;11.02;;;16.10;99.90;;;;;;5078777;28;20078;-75
2023/09/04 02:04:39;;;;;;;14.55;11.13;;;16.10;99.90;;;;;;5070760;28;20392;-75
2023/09/04 02:07:06;;;;;;;15.65;11.43;;;16.00;99.90;;;;;;5073378;28;20048;-75
2023/09/04 02:09:31;;;;;;;15.45;11.23;;;16.00;99.90;;;;;;5088971;28;20043;-75
2023/09/04 02:11:57;;;;;;;17.15;11.15;;;16.00;99.90;;;;;;5080204;28;20122;-75
2023/09/04 02:14:22;;;;;;;15.38;11.18;;;16.00;99.90;;;;;;5085946;28;20027;-75
2023/09/04 02:16:48;;;;;;;14.63;11.35;;;16.00;99.90;;;;;;5085881;28;20095;-75
2023/09/04 02:19:13;;;;;;;15.25;11.13;;;16.00;99.90;;;;;;5083581;28;20092;-75
2023/09/04 02:21:39;;;;;;;14.45;10.75;;;16.00;99.90;;;;;;5080637;28;20092;-75
2023/09/04 02:24:05;;;;;;;14.60;11.13;;;16.00;99.90;;;;;;5079473;28;20020;-75
2023/09/04 02:26:31;;;;;;;16.27;10.48;;;16.00;99.90;;;;;;5078235;28;20081;-75
2023/09/04 02:28:57;;;;;;;15.30;10.68;;;16.00;99.90;;;;;;5080604;28;20510;-75
2023/09/04 02:31:22;;;;;;;13.20;10.50;;;15.90;99.90;;;;;;5083307;28;20025;-75
2023/09/04 02:33:48;;;;;;;12.90;9.80;;;15.90;99.90;;;;;;5083528;28;20551;-75
2023/09/04 02:36:14;;;;;;;14.65;10.82;;;15.90;99.90;;;;;;5077721;28;20063;-75
2023/09/04 02:38:40;;;;;;;15.23;10.27;;;15.90;99.90;;;;;;5079774;28;20375;-75
2023/09/04 02:41:06;;;;;;;14.73;10.38;;;15.90;99.90;;;;;;5086373;28;20026;-75
2023/09/04 02:43:31;;;;;;;15.63;10.60;;;15.80;99.90;;;;;;5076681;28;20028;-75
2023/09/04 02:45:57;;;;;;;14.55;10.43;;;15.80;99.90;;;;;;5071804;28;20020;-75
2023/09/04 02:48:23;;;;;;;14.90;10.63;;;15.80;99.90;;;;;;5072919;28;20033;-75
2023/09/04 02:50:48;;;;;;;16.88;10.88;;;15.80;99.90;;;;;;5082935;28;20372;-75
2023/09/04 02:53:14;;;;;;;12.48;9.75;;;15.80;99.90;;;;;;5084403;28;20027;-75
2023/09/04 02:55:45;;;;;;;13.07;9.88;;;15.80;99.90;;;;;;5082185;28;20123;-75
2023/09/04 02:58:11;;;;;;;14.25;10.20;;;15.70;99.90;;;;;;5077658;28;20114;-75
2023/09/04 03:00:40;;;;;;;13.38;9.60;;;15.70;99.90;;;;;;5087999;28;20047;-75
2023/09/04 03:03:06;;;;;;;13.68;10.00;;;15.70;99.90;;;;;;5080903;28;20106;-75
2023/09/04 03:05:31;;;;;;;14.82;10.40;;;15.70;99.90;;;;;;5091043;28;20036;-75
2023/09/04 03:07:57;;;;;;;13.15;9.95;;;15.60;99.90;;;;;;5085963;28;20074;-75
2023/09/04 03:10:23;;;;;;;12.45;9.88;;;15.60;99.90;;;;;;5082765;28;20078;-75
2023/09/04 03:12:48;;;;;;;16.40;10.30;;;15.60;99.90;;;;;;5090103;28;20103;-75
2023/09/04 03:15:14;;;;;;;15.35;10.30;;;15.60;99.90;;;;;;5085661;28;20028;-75
2023/09/04 03:17:39;;;;;;;14.60;10.65;;;15.60;99.90;;;;;;5080413;28;20032;-75
2023/09/04 03:20:09;;;;;;;12.93;10.23;;;15.60;99.90;;;;;;5085454;28;20055;-75
2023/09/04 03:22:34;;;;;;;12.32;9.95;;;15.50;99.90;;;;;;5084765;28;20135;-75
2023/09/04 03:25:01;;;;;;;12.40;9.98;;;15.50;99.90;;;;;;5080965;28;20689;-75
2023/09/04 03:27:27;;;;;;;13.25;10.23;;;15.50;99.90;;;;;;5083830;28;20020;-75
2023/09/04 03:29:52;;;;;;;13.75;10.50;;;15.50;99.90;;;;;;5087393;28;20475;-75
2023/09/04 03:32:18;;;;;;;14.70;10.13;;;15.50;99.90;;;;;;5084070;28;20548;-75
2023/09/04 03:34:44;;;;;;;29.60;19.83;;;15.50;99.90;;;;;;5087605;28;20059;-75
2023/09/04 03:37:09;;;;;;;15.57;12.43;;;15.50;99.90;;;;;;5093301;28;20017;-75
2023/09/04 03:39:39;;;;;;;12.68;9.50;;;15.50;99.90;;;;;;5084933;28;20024;-75
2023/09/04 03:42:05;;;;;;;12.90;10.23;;;15.50;99.90;;;;;;5074727;28;20024;-75
2023/09/04 03:44:31;;;;;;;12.68;10.20;;;15.40;99.90;;;;;;5085113;28;20021;-75
2023/09/04 03:46:56;;;;;;;12.80;9.52;;;15.40;99.90;;;;;;5086496;28;20024;-75
2023/09/04 03:49:22;;;;;;;13.60;9.48;;;15.40;99.90;;;;;;5086022;28;20025;-75
2023/09/04 03:51:47;;;;;;;12.85;9.85;;;15.30;99.90;;;;;;5075310;28;20034;-74
2023/09/04 03:54:13;;;;;;;13.95;9.60;;;15.30;99.90;;;;;;5088413;28;20032;-75
2023/09/04 03:56:39;;;;;;;13.27;9.88;;;15.30;99.90;;;;;;5084261;28;20079;-75
2023/09/04 03:59:04;;;;;;;12.05;9.73;;;15.20;99.90;;;;;;5090433;28;20047;-75
2023/09/04 04:01:31;;;;;;;13.73;9.90;;;15.20;99.90;;;;;;5086507;28;20084;-75
2023/09/04 04:03:59;;;;;;;13.35;9.70;;;15.20;99.90;;;;;;5072879;28;20020;-75
2023/09/04 04:06:25;;;;;;;13.00;10.32;;;15.20;99.90;;;;;;5076925;28;20020;-75
2023/09/04 04:08:51;;;;;;;13.07;10.07;;;15.20;99.90;;;;;;5087092;28;20016;-75
2023/09/04 04:11:20;;;;;;;12.85;9.80;;;15.10;99.90;;;;;;5075835;28;20049;-75
2023/09/04 04:13:47;;;;;;;13.18;9.82;;;15.10;99.90;;;;;;5076752;28;20384;-75
2023/09/04 04:16:12;;;;;;;13.25;10.00;;;15.10;99.90;;;;;;5080485;28;20077;-75
2023/09/04 04:18:38;;;;;;;17.73;9.60;;;15.10;99.90;;;;;;5084604;28;20457;-75
2023/09/04 04:21:04;;;;;;;14.15;9.82;;;15.10;99.90;;;;;;5092054;28;20020;-75
2023/09/04 04:23:30;;;;;;;13.80;9.85;;;15.00;99.90;;;;;;5086684;28;20468;-75
2023/09/04 04:25:56;;;;;;;13.07;9.63;;;15.00;99.90;;;;;;5083912;28;20039;-74
2023/09/04 04:28:22;;;;;;;14.13;10.35;;;15.00;99.90;;;;;;5075366;28;20021;-75
2023/09/04 04:30:48;;;;;;;12.95;9.45;;;15.00;99.90;;;;;;5083407;28;20027;-74
2023/09/04 04:33:14;;;;;;;12.02;9.75;;;15.00;99.90;;;;;;5088960;28;20020;-75
2023/09/04 04:35:40;;;;;;;13.90;10.45;;;15.00;99.90;;;;;;5091361;28;20119;-75
2023/09/04 04:38:09;;;;;;;11.73;9.88;;;15.00;99.90;;;;;;5090604;28;20385;-75
2023/09/04 04:40:38;;;;;;;16.38;9.98;;;15.00;99.90;;;;;;5085869;28;20023;-75
2023/09/04 04:43:04;;;;;;;15.38;10.50;;;15.00;99.90;;;;;;5081456;28;20016;-75
2023/09/04 04:45:29;;;;;;;15.55;10.48;;;14.90;99.90;;;;;;5076820;28;20027;-75
2023/09/04 04:47:55;;;;;;;14.35;10.70;;;14.90;99.90;;;;;;5081821;28;20142;-74
2023/09/04 04:50:21;;;;;;;14.68;10.35;;;14.90;99.90;;;;;;5083674;28;20097;-75
2023/09/04 04:52:47;;;;;;;14.70;10.15;;;14.90;99.90;;;;;;5083871;28;20531;-74
2023/09/04 04:55:12;;;;;;;14.27;9.82;;;14.90;99.90;;;;;;5084270;28;20061;-75
2023/09/04 04:57:38;;;;;;;12.18;10.15;;;14.90;99.90;;;;;;5080169;28;20392;-74
2023/09/04 05:00:06;;;;;;;13.68;9.60;;;14.90;99.90;;;;;;5081933;28;20020;-74
2023/09/04 05:02:33;;;;;;;13.65;9.73;;;14.90;99.90;;;;;;5074887;28;20024;-74
2023/09/04 05:04:58;;;;;;;12.35;9.82;;;14.90;99.90;;;;;;5085188;28;20043;-74
2023/09/04 05:07:24;;;;;;;17.30;10.77;;;14.80;99.90;;;;;;5086131;28;20024;-74
2023/09/04 05:09:54;;;;;;;16.58;10.45;;;14.80;99.90;;;;;;5078052;28;20024;-74
2023/09/04 05:12:20;;;;;;;14.95;11.13;;;14.80;99.90;;;;;;5081991;28;20347;-74
2023/09/04 05:14:45;;;;;;;14.63;11.10;;;14.80;99.90;;;;;;5071633;28;20468;-74
2023/09/04 05:17:11;;;;;;;15.02;10.20;;;14.80;99.90;;;;;;5079577;28;20036;-74
2023/09/04 05:19:36;;;;;;;15.32;10.93;;;14.80;99.90;;;;;;5072997;28;20051;-74
2023/09/04 05:22:02;;;;;;;14.70;10.93;;;14.80;99.90;;;;;;5087170;28;20063;-74
2023/09/04 05:24:28;;;;;;;13.23;10.88;;;14.80;99.90;;;;;;5083632;28;20670;-74
2023/09/04 05:26:54;;;;;;;15.00;11.07;;;14.80;99.90;;;;;;5074645;28;20016;-74
2023/09/04 05:29:20;;;;;;;14.55;10.88;;;14.80;99.90;;;;;;5085559;28;20047;-74
2023/09/04 05:31:48;;;;;;;16.65;12.38;;;14.80;99.90;;;;;;5081140;28;20468;-75
2023/09/04 05:34:14;;;;;;;18.75;12.20;;;14.80;99.90;;;;;;5088932;28;20028;-75
2023/09/04 05:36:40;;;;;;;16.92;12.07;;;14.80;99.90;;;;;;5077071;28;20024;-75
2023/09/04 05:39:05;;;;;;;18.13;12.93;;;14.90;99.90;;;;;;5078314;28;20503;-75
2023/09/04 05:41:31;;;;;;;19.38;12.60;;;14.90;99.90;;;;;;5081953;28;20024;-76
2023/09/04 05:43:56;;;;;;;16.27;11.55;;;14.90;99.90;;;;;;5086835;28;20027;-75
2023/09/04 05:46:22;;;;;;;14.73;11.75;;;14.90;99.90;;;;;;5090036;28;20032;-75
2023/09/04 05:48:48;;;;;;;14.35;11.07;;;14.90;99.90;;;;;;5072072;28;20063;-75
2023/09/04 05:51:13;;;;;;;17.10;11.73;;;14.90;99.90;;;;;;5078286;28;20256;-75
2023/09/04 05:53:39;;;;;;;17.17;11.75;;;15.00;99.90;;;;;;5077394;28;20024;-75
2023/09/04 05:56:09;;;;;;;13.18;10.90;;;15.00;99.90;;;;;;5073309;28;20028;-75
2023/09/04 05:58:43;;;;;;;15.20;11.15;;;15.00;99.90;;;;;;5069009;28;20063;-75
2023/09/04 06:01:08;;;;;;;12.93;10.27;;;15.00;99.90;;;;;;5083827;28;20387;-75
2023/09/04 06:03:34;;;;;;;14.25;11.10;;;15.10;99.90;;;;;;5089966;28;20065;-75
2023/09/04 06:06:00;;;;;;;15.82;12.23;;;15.10;99.90;;;;;;5084696;28;20078;-75
2023/09/04 06:08:25;;;;;;;18.67;12.80;;;15.10;99.90;;;;;;5077630;28;20262;-75
2023/09/04 06:10:51;;;;;;;17.92;12.13;;;15.20;99.90;;;;;;5073083;28;20020;-75
2023/09/04 06:13:17;;;;;;;19.52;12.60;;;15.20;99.90;;;;;;5078339;28;20028;-75
2023/09/04 06:15:43;;;;;;;18.42;13.23;;;15.20;99.90;;;;;;5076120;28;20029;-75
2023/09/04 06:18:08;;;;;;;17.70;12.07;;;15.20;99.90;;;;;;5083587;28;20057;-75
2023/09/04 06:20:34;;;;;;;20.27;13.23;;;15.30;99.90;;;;;;5088483;28;20016;-75
2023/09/04 06:23:01;;;;;;;21.95;13.82;;;15.30;99.90;;;;;;5086675;28;20032;-76
2023/09/04 06:25:27;;;;;;;25.02;14.43;;;15.30;99.90;;;;;;5074840;28;20050;-75
2023/09/04 06:27:52;;;;;;;20.50;12.77;;;15.40;99.90;;;;;;5090043;28;20031;-75
2023/09/04 06:30:18;;;;;;;22.33;14.52;;;15.40;99.90;;;;;;5083405;28;20111;-75
2023/09/04 06:32:44;;;;;;;23.27;14.68;;;15.50;99.90;;;;;;5071682;28;20471;-75
2023/09/04 06:35:09;;;;;;;19.73;14.73;;;15.50;99.90;;;;;;5082779;28;20444;-75
2023/09/04 06:37:35;;;;;;;21.90;14.70;;;15.60;99.90;;;;;;5080312;28;20368;-75
2023/09/04 06:40:02;;;;;;;20.77;15.43;;;15.60;99.90;;;;;;5089071;28;20019;-75
2023/09/04 06:42:27;;;;;;;21.58;15.43;;;15.70;99.90;;;;;;5087228;28;20028;-75
2023/09/04 06:44:53;;;;;;;21.50;15.10;;;15.70;99.90;;;;;;5079440;28;20020;-75
2023/09/04 06:47:18;;;;;;;22.10;15.73;;;15.80;99.90;;;;;;5080086;28;20040;-75
2023/09/04 06:49:44;;;;;;;18.95;14.13;;;15.80;99.90;;;;;;5088253;28;20025;-75
2023/09/04 06:52:10;;;;;;;24.08;15.88;;;15.90;99.90;;;;;;5077119;28;20024;-75
2023/09/04 06:54:36;;;;;;;22.70;15.85;;;15.90;99.90;;;;;;5075624;28;20467;-75
2023/09/04 06:57:02;;;;;;;24.33;16.90;;;16.00;99.90;;;;;;5084650;28;20062;-76
2023/09/04 06:59:27;;;;;;;24.90;16.67;;;16.00;99.90;;;;;;5075389;28;20064;-75
2023/09/04 07:01:53;;;;;;;22.42;17.00;;;16.10;99.90;;;;;;5086138;28;20023;-76
2023/09/04 07:04:19;;;;;;;26.27;17.00;;;16.10;99.90;;;;;;5088750;28;20025;-75
2023/09/04 07:06:44;;;;;;;25.00;16.83;;;16.20;99.90;;;;;;5089624;28;20507;-75
2023/09/04 07:09:10;;;;;;;23.20;17.20;;;16.20;99.90;;;;;;5079527;28;20017;-75
2023/09/04 07:11:36;;;;;;;24.48;18.10;;;16.30;99.90;;;;;;5084627;28;20228;-75
2023/09/04 07:14:02;;;;;;;26.48;17.98;;;16.30;99.90;;;;;;5089537;28;20021;-75
2023/09/04 07:16:28;;;;;;;23.65;17.63;;;16.40;99.90;;;;;;5086182;28;20039;-75
2023/09/04 07:18:54;;;;;;;26.20;19.05;;;16.40;99.90;;;;;;5089212;28;20023;-75
2023/09/04 07:21:20;;;;;;;23.70;18.45;;;16.50;99.90;;;;;;5079315;28;20032;-75
2023/09/04 07:23:46;;;;;;;25.88;17.20;;;16.50;99.90;;;;;;5088979;28;20021;-75
2023/09/04 07:26:11;;;;;;;25.63;18.77;;;16.60;99.90;;;;;;5077527;28;20027;-75
2023/09/04 07:28:37;;;;;;;25.38;17.50;;;16.60;99.90;;;;;;5086635;28;20352;-75
2023/09/04 07:31:19;;;;;;;25.48;18.65;;;16.70;99.90;;;;;;5089202;28;20602;-75
2023/09/04 07:33:49;;;;;;;28.25;18.85;;;16.80;99.90;;;;;;5089343;28;20012;-75
2023/09/04 07:36:15;;;;;;;26.67;17.40;;;16.90;99.90;;;;;;5083260;28;20523;-75
2023/09/04 07:38:42;;;;;;;25.67;16.90;;;16.90;99.90;;;;;;5084096;28;20142;-75
2023/09/04 07:41:08;;;;;;;24.83;18.10;;;17.00;99.90;;;;;;5080621;28;20028;-75
2023/09/04 07:43:34;;;;;;;22.10;16.75;;;17.10;99.90;;;;;;5072810;28;20025;-75
2023/09/04 07:46:02;;;;;;;26.60;17.98;;;17.20;99.90;;;;;;5086235;28;20100;-75
2023/09/04 07:48:29;;;;;;;25.05;16.75;;;17.30;99.90;;;;;;5073049;28;20032;-75
2023/09/04 07:50:56;;;;;;;22.10;17.33;;;17.40;99.90;;;;;;5087651;28;20387;-75
2023/09/04 07:53:22;;;;;;;21.42;15.98;;;17.50;99.90;;;;;;5093270;28;20024;-75
2023/09/04 07:55:48;;;;;;;22.58;16.13;;;17.50;99.90;;;;;;5084382;28;20024;-75
2023/09/04 07:58:14;;;;;;;21.83;16.33;;;17.60;99.90;;;;;;5087840;28;20052;-75
2023/09/04 08:00:47;;;;;;;21.60;15.10;;;17.70;99.90;;;;;;5083737;28;20026;-75
2023/09/04 08:03:13;;;;;;;21.70;16.58;;;17.80;99.90;;;;;;5092531;28;20043;-75
2023/09/04 08:05:39;;;;;;;19.65;15.40;;;17.90;99.90;;;;;;5083397;28;20090;-75
2023/09/04 08:08:09;;;;;;;24.63;17.52;;;18.00;99.90;;;;;;5080134;28;20032;-75
2023/09/04 08:10:39;;;;;;;18.92;14.93;;;18.10;99.90;;;;;;5077415;28;20024;-75
2023/09/04 08:13:15;;;;;;;20.60;15.80;;;18.30;99.90;;;;;;5078291;28;20364;-75
2023/09/04 08:15:41;;;;;;;26.40;16.15;;;18.40;99.90;;;;;;5084245;28;20020;-75
2023/09/04 08:18:08;;;;;;;20.92;14.93;;;18.50;99.90;;;;;;5092485;28;20095;-75
2023/09/04 08:20:34;;;;;;;21.48;15.05;;;18.70;99.90;;;;;;5083723;28;20024;-75
2023/09/04 08:23:00;;;;;;;19.70;14.50;;;18.90;99.90;;;;;;5085307;28;20105;-75
2023/09/04 08:25:26;;;;;;;18.08;14.02;;;19.10;99.90;;;;;;5088446;28;20021;-75
2023/09/04 08:27:51;;;;;;;18.15;14.30;;;19.30;99.90;;;;;;5074409;28;20027;-75
2023/09/04 08:30:17;;;;;;;21.55;15.10;;;19.50;99.90;;;;;;5087933;28;20028;-75
2023/09/04 08:32:44;;;;;;;19.65;15.57;;;19.60;99.90;;;;;;5082300;28;20024;-75
2023/09/04 08:35:11;;;;;;;20.85;15.02;;;19.70;99.90;;;;;;5086999;28;20020;-75
2023/09/04 08:37:37;;;;;;;19.63;14.50;;;19.80;99.90;;;;;;5089847;28;20074;-75
2023/09/04 08:40:03;;;;;;;19.55;14.35;;;20.00;99.90;;;;;;5074731;28;20018;-75
2023/09/04 08:42:29;;;;;;;18.35;13.77;;;20.20;99.90;;;;;;5083654;28;20504;-75
2023/09/04 08:44:57;;;;;;;18.80;14.82;;;20.30;99.90;;;;;;5091566;28;20363;-76
2023/09/04 08:47:23;;;;;;;21.00;13.80;;;20.40;99.90;;;;;;5092040;28;20447;-75
2023/09/04 08:49:50;;;;;;;17.15;14.02;;;20.50;99.90;;;;;;5085059;28;20407;-75
2023/09/04 08:52:16;;;;;;;18.10;14.63;;;20.70;99.90;;;;;;5083982;28;20021;-75
2023/09/04 08:54:42;;;;;;;19.75;14.35;;;20.70;99.90;;;;;;5081073;28;20076;-75
2023/09/04 08:57:11;;;;;;;20.50;15.43;;;20.80;99.90;;;;;;5091715;28;20046;-75
2023/09/04 08:59:37;;;;;;;20.73;14.73;;;21.00;99.90;;;;;;5090709;28;20412;-75
2023/09/04 09:02:04;;;;;;;20.85;14.25;;;21.00;99.90;;;;;;5087838;28;20020;-75
2023/09/04 09:04:33;;;;;;;21.65;15.50;;;21.10;99.90;;;;;;5089545;28;20028;-75
2023/09/04 09:07:02;;;;;;;19.90;15.63;;;21.10;99.90;;;;;;5078907;28;20056;-75
2023/09/04 09:09:29;;;;;;;19.08;14.95;;;21.10;99.90;;;;;;5084248;28;20104;-75
2023/09/04 09:11:55;;;;;;;22.77;15.63;;;21.20;99.90;;;;;;5074910;28;20032;-75
2023/09/04 09:14:29;;;;;;;19.65;15.27;;;21.30;99.90;;;;;;5084363;28;20025;-75
2023/09/04 09:17:10;;;;;;;21.50;15.02;;;21.30;99.90;;;;;;5077215;28;20029;-75
2023/09/04 09:19:37;;;;;;;17.95;14.13;;;21.40;99.90;;;;;;5081207;28;20115;-75
2023/09/04 09:22:14;;;;;;;21.92;16.10;;;21.50;99.90;;;;;;5090498;28;20024;-75
2023/09/04 09:25:01;;;;;;;18.52;14.48;;;21.60;99.90;;;;;;5090991;28;20030;-76
2023/09/04 09:27:32;;;;;;;18.25;14.27;;;21.70;99.90;;;;;;5091719;28;20027;-75
2023/09/04 09:29:59;;;;;;;16.52;14.07;;;21.90;99.90;;;;;;5089591;28;20021;-76
2023/09/04 09:32:29;;;;;;;18.15;14.30;;;22.10;99.90;;;;;;5087487;28;20082;-77
2023/09/04 09:34:57;;;;;;;18.45;14.90;;;22.30;99.90;;;;;;5086467;28;20472;-76
2023/09/04 09:37:30;;;;;;;16.38;13.15;;;22.40;99.90;;;;;;5082516;28;20024;-77
2023/09/04 09:39:56;;;;;;;19.10;13.00;;;22.50;99.90;;;;;;5086879;28;20020;-77
2023/09/04 09:42:23;;;;;;;16.25;14.38;;;22.60;99.90;;;;;;5078260;28;20085;-77
2023/09/04 09:44:51;;;;;;;18.05;12.98;;;22.70;99.90;;;;;;5089438;28;20028;-77
2023/09/04 09:47:17;;;;;;;18.27;11.75;;;22.80;99.90;;;;;;5074795;28;20036;-78
2023/09/04 09:49:43;;;;;;;17.27;13.57;;;22.90;99.90;;;;;;5087418;28;20030;-78
2023/09/04 09:52:10;;;;;;;17.63;13.60;;;23.10;99.90;;;;;;5084162;28;20025;-77
2023/09/04 09:54:42;;;;;;;17.67;13.60;;;23.30;99.90;;;;;;5089099;28;20027;-77
2023/09/04 09:57:10;;;;;;;15.93;12.80;;;23.30;99.90;;;;;;5075494;28;20024;-78
2023/09/04 09:59:38;;;;;;;15.25;12.18;;;23.30;99.90;;;;;;5087890;28;20057;-77
2023/09/04 10:02:06;;;;;;;18.77;13.50;;;23.40;99.90;;;;;;5079090;28;20020;-77
2023/09/04 10:04:32;;;;;;;16.67;13.20;;;23.50;99.90;;;;;;5088244;28;20024;-77
2023/09/04 10:07:03;;;;;;;15.48;12.40;;;23.60;99.90;;;;;;5078925;28;20032;-75
2023/09/04 10:09:36;;;;;;;16.88;13.07;;;23.70;99.90;;;;;;5090231;28;20486;-75
2023/09/04 10:12:11;;;;;;;18.02;11.50;;;23.80;99.90;;;;;;5083211;28;20482;-75
2023/09/04 10:14:42;;;;;;;13.85;9.75;;;23.90;99.90;;;;;;5078043;28;20042;-75
2023/09/04 10:17:17;;;;;;;17.40;13.27;;;24.10;99.90;;;;;;5083277;28;20020;-75
2023/09/04 10:19:46;;;;;;;18.80;12.70;;;24.20;99.90;;;;;;5076905;28;20033;-75
2023/09/04 10:22:18;;;;;;;15.23;12.00;;;24.30;99.90;;;;;;5071290;28;20023;-75
2023/09/04 10:25:09;;;;;;;16.88;12.48;;;24.30;99.90;;;;;;5073459;28;20495;-77
2023/09/04 10:27:44;;;;;;;14.70;11.90;;;24.40;99.90;;;;;;5080071;28;20103;-77
2023/09/04 10:30:17;;;;;;;15.70;11.10;;;24.50;99.90;;;;;;5084516;28;20081;-78
2023/09/04 10:32:44;;;;;;;15.48;11.40;;;24.60;99.90;;;;;;5079022;28;20042;-78
2023/09/04 10:35:10;;;;;;;14.00;10.85;;;24.70;99.90;;;;;;5084712;28;20227;-77
2023/09/04 10:37:40;;;;;;;15.07;10.23;;;24.90;99.90;;;;;;5088469;28;20047;-77
2023/09/04 10:40:07;;;;;;;13.40;10.77;;;25.10;99.90;;;;;;5088460;28;20020;-77
2023/09/04 10:42:33;;;;;;;15.10;11.02;;;25.20;99.90;;;;;;5086398;28;20036;-78
2023/09/04 10:45:11;;;;;;;10.77;9.38;;;25.20;99.90;;;;;;5082948;28;20106;-78
2023/09/04 10:47:48;;;;;;;12.50;9.23;;;25.30;99.90;;;;;;5083141;28;20017;-78
2023/09/04 10:50:33;;;;;;;11.40;9.65;;;25.40;99.90;;;;;;5082378;28;20020;-78
2023/09/04 10:53:01;;;;;;;13.05;10.18;;;25.40;99.90;;;;;;5075378;28;20500;-78
2023/09/04 10:55:27;;;;;;;14.88;10.65;;;25.40;99.90;;;;;;5074962;28;20091;-78
2023/09/04 10:58:00;;;;;;;13.98;10.45;;;25.50;99.90;;;;;;5082202;28;20065;-78
2023/09/04 11:00:30;;;;;;;12.93;9.77;;;25.50;99.90;;;;;;5090083;28;20024;-78
2023/09/04 11:02:57;;;;;;;13.45;9.63;;;25.60;99.90;;;;;;5085819;28;20047;-78
2023/09/04 11:05:23;;;;;;;11.70;9.80;;;25.70;99.90;;;;;;5087537;28;20066;-77
2023/09/04 11:07:48;;;;;;;13.50;10.25;;;25.80;99.90;;;;;;5072589;28;20055;-78
2023/09/04 11:10:14;;;;;;;14.02;10.10;;;25.80;99.90;;;;;;5071824;28;20029;-77
2023/09/04 11:12:43;;;;;;;12.43;9.98;;;25.80;99.90;;;;;;5083536;28;20363;-77
2023/09/04 11:15:15;;;;;;;10.25;8.40;;;25.90;99.90;;;;;;5089541;28;20034;-78
2023/09/04 11:17:44;;;;;;;13.77;9.88;;;25.90;99.90;;;;;;5081589;28;20052;-78
2023/09/04 11:20:14;;;;;;;13.82;9.18;;;26.00;99.90;;;;;;5082885;28;20024;-77
2023/09/04 11:22:48;;;;;;;12.18;8.77;;;26.20;99.90;;;;;;5074153;28;20055;-78
2023/09/04 11:25:17;;;;;;;13.57;9.73;;;26.30;99.90;;;;;;5087440;28;20064;-77
2023/09/04 11:27:44;;;;;;;12.85;8.43;;;26.40;99.90;;;;;;5076007;28;20028;-77
2023/09/04 11:30:10;;;;;;;11.63;8.10;;;26.50;99.90;;;;;;5076742;28;20054;-77
2023/09/04 11:32:37;;;;;;;8.45;7.03;;;26.50;99.90;;;;;;5084827;28;20407;-77
2023/09/04 11:35:03;;;;;;;10.93;8.50;;;26.70;99.90;;;;;;5084307;28;20478;-77
2023/09/04 11:37:32;;;;;;;12.10;7.35;;;26.90;99.90;;;;;;5079166;28;20028;-77
2023/09/04 11:40:00;;;;;;;10.15;7.55;;;27.00;99.90;;;;;;5088897;28;20016;-77
2023/09/04 11:42:27;;;;;;;9.93;7.15;;;27.10;99.90;;;;;;5080292;28;20031;-78
2023/09/04 11:44:53;;;;;;;10.93;7.00;;;27.20;99.90;;;;;;5078206;28;20016;-77
2023/09/04 11:47:21;;;;;;;6.20;5.22;;;27.30;99.90;;;;;;5087439;28;20035;-77
2023/09/04 11:49:47;;;;;;;8.80;5.20;;;27.40;99.90;;;;;;5088878;28;20087;-77
2023/09/04 11:52:16;;;;;;;9.02;6.43;;;27.50;99.90;;;;;;5090830;28;20436;-77
2023/09/04 11:54:43;;;;;;;6.72;5.47;;;27.60;99.90;;;;;;5083141;28;20036;-76
2023/09/04 11:57:09;;;;;;;8.32;5.15;;;27.70;99.90;;;;;;5084354;28;20089;-73
2023/09/04 11:59:40;;;;;;;7.38;6.00;;;27.80;99.90;;;;;;5081938;28;20131;-73
2023/09/04 12:02:07;;;;;;;7.57;6.00;;;27.80;99.90;;;;;;5091160;28;20549;-73
2023/09/04 12:04:33;;;;;;;7.45;5.55;;;27.90;99.90;;;;;;5089196;28;20027;-73
2023/09/04 12:07:06;;;;;;;7.63;5.60;;;27.90;99.90;;;;;;5093316;28;20029;-73
2023/09/04 12:09:35;;;;;;;9.35;6.07;;;27.90;99.40;;;;;;5086138;28;20016;-73
2023/09/04 12:12:04;;;;;;;9.38;6.03;;;27.80;99.50;;;;;;5079058;28;20036;-73
2023/09/04 12:14:30;;;;;;;6.38;4.80;;;27.80;99.20;;;;;;5076800;28;20012;-73
2023/09/04 12:16:55;;;;;;;5.88;4.88;;;27.80;99.30;;;;;;5073979;28;20501;-73
2023/09/04 12:19:23;;;;;;;7.07;4.30;;;27.80;99.30;;;;;;5085726;28;20758;-74
2023/09/04 12:21:49;;;;;;;6.05;4.40;;;27.90;98.90;;;;;;5085051;28;20563;-73
2023/09/04 12:24:16;;;;;;;7.28;4.90;;;27.90;98.40;;;;;;5078271;28;20116;-73
2023/09/04 12:26:43;;;;;;;8.02;4.78;;;28.00;98.20;;;;;;5079087;28;20033;-73
2023/09/04 12:29:09;;;;;;;6.97;5.38;;;28.00;98.30;;;;;;5079814;28;20426;-73
2023/09/04 12:31:36;;;;;;;5.88;4.80;;;28.00;98.00;;;;;;5074414;28;20028;-74